Pevek, Russia
Current Conditions -  °F | °C
As of 3:00 PM on Sunday 23 Nov 2014 (Local Time) from UHMA Reporting Station
Light Snow Light Snow  
Wind Chill: -4°   Ceiling: 8000
Heat Index: 10°   Visibility: 6mi
Dew Point:   Wind: 11mph
Humidity: 85%   Direction: 360°N
Pressure: 29.88"   Gusts: NA
Location:  69.7°N, 170.38°E
Report Text: UHMA 230300Z 36005MPS 9999 -SN OVC080 M12/M14 Q1012 NOSIG RMKQFE755/1007
Loading
Personal Weather Stations






























Interactive Weather Map New forecast layout! Learn more

10-Day Weather Forecast

Advertisements
Track Severe Weather on mobile